sensor_id;sensor_type;location;lat;lon;timestamp;pressure;altitude;pressure_sealevel;temperature;humidity
71457;BME280;59263;48.160;11.752;2023-02-04T00:00:54;96769.03;;;3.58;100.00
71457;BME280;59263;48.160;11.752;2023-02-04T00:03:22;96713.63;;;3.24;100.00
71457;BME280;59263;48.160;11.752;2023-02-04T00:05:47;96771.16;;;3.50;100.00
71457;BME280;59263;48.160;11.752;2023-02-04T00:08:13;96770.19;;;3.52;100.00
71457;BME280;59263;48.160;11.752;2023-02-04T00:10:38;96763.84;;;3.59;100.00
71457;BME280;59263;48.160;11.752;2023-02-04T00:13:04;96740.84;;;3.42;100.00
71457;BME280;59263;48.160;11.752;2023-02-04T00:15:30;96749.03;;;3.49;100.00
71457;BME280;59263;48.160;11.752;2023-02-04T00:17:57;96737.84;;;3.34;100.00
71457;BME280;59263;48.160;11.752;2023-02-04T00:20:23;96771.31;;;3.47;100.00
71457;BME280;59263;48.160;11.752;2023-02-04T00:22:48;96738.13;;;3.28;100.00
71457;BME280;59263;48.160;11.752;2023-02-04T00:25:17;96724.53;;;3.27;100.00
71457;BME280;59263;48.160;11.752;2023-02-04T00:27:42;96751.97;;;3.41;100.00
71457;BME280;59263;48.160;11.752;2023-02-04T00:30:09;96760.25;;;3.46;100.00
71457;BME280;59263;48.160;11.752;2023-02-04T00:32:37;96776.41;;;3.47;100.00
71457;BME280;59263;48.160;11.752;2023-02-04T00:35:03;96795.31;;;3.61;100.00
71457;BME280;59263;48.160;11.752;2023-02-04T00:37:31;96744.06;;;3.28;100.00
71457;BME280;59263;48.160;11.752;2023-02-04T00:39:57;96795.31;;;3.61;100.00
71457;BME280;59263;48.160;11.752;2023-02-04T00:42:22;96792.16;;;3.56;100.00
71457;BME280;59263;48.160;11.752;2023-02-04T00:44:47;96783.56;;;3.57;100.00
71457;BME280;59263;48.160;11.752;2023-02-04T00:47:16;96745.53;;;3.34;100.00
71457;BME280;59263;48.160;11.752;2023-02-04T00:49:41;96797.28;;;3.56;100.00
71457;BME280;59263;48.160;11.752;2023-02-04T00:52:09;96781.38;;;3.50;100.00
71457;BME280;59263;48.160;11.752;2023-02-04T00:54:34;96741.13;;;3.36;100.00
71457;BME280;59263;48.160;11.752;2023-02-04T00:57:02;96791.69;;;3.66;100.00
71457;BME280;59263;48.160;11.752;2023-02-04T00:59:28;96772.13;;;3.47;100.00
71457;BME280;59263;48.160;11.752;2023-02-04T01:01:53;96793.50;;;3.63;100.00
71457;BME280;59263;48.160;11.752;2023-02-04T01:04:21;96811.34;;;3.65;100.00
71457;BME280;59263;48.160;11.752;2023-02-04T01:06:47;96788.69;;;3.57;100.00
71457;BME280;59263;48.160;11.752;2023-02-04T01:09:12;96802.97;;;3.61;100.00
71457;BME280;59263;48.160;11.752;2023-02-04T01:11:38;96792.59;;;3.47;100.00
71457;BME280;59263;48.160;11.752;2023-02-04T01:14:03;96810.66;;;3.61;100.00
71457;BME280;59263;48.160;11.752;2023-02-04T01:16:31;96814.41;;;3.54;100.00
71457;BME280;59263;48.160;11.752;2023-02-04T01:18:57;96832.63;;;3.66;100.00
71457;BME280;59263;48.160;11.752;2023-02-04T01:21:23;96766.41;;;3.25;100.00
71457;BME280;59263;48.160;11.752;2023-02-04T01:23:49;96807.94;;;3.47;100.00
71457;BME280;59263;48.160;11.752;2023-02-04T01:26:18;96823.16;;;3.50;100.00
71457;BME280;59263;48.160;11.752;2023-02-04T01:28:44;96796.97;;;3.45;100.00
71457;BME280;59263;48.160;11.752;2023-02-04T01:31:10;96814.41;;;3.54;100.00
71457;BME280;59263;48.160;11.752;2023-02-04T01:33:35;96798.84;;;3.42;100.00
71457;BME280;59263;48.160;11.752;2023-02-04T01:36:03;96835.66;;;3.56;100.00
71457;BME280;59263;48.160;11.752;2023-02-04T01:38:29;96821.19;;;3.55;100.00
71457;BME280;59263;48.160;11.752;2023-02-04T01:40:57;96827.81;;;3.59;100.00
71457;BME280;59263;48.160;11.752;2023-02-04T01:43:23;96809.75;;;3.45;100.00
71457;BME280;59263;48.160;11.752;2023-02-04T01:45:49;96843.84;;;3.63;100.00
71457;BME280;59263;48.160;11.752;2023-02-04T01:48:16;96819.69;;;3.51;100.00
71457;BME280;59263;48.160;11.752;2023-02-04T01:50:51;96817.75;;;3.56;100.00
71457;BME280;59263;48.160;11.752;2023-02-04T01:53:19;96853.25;;;3.80;100.00
71457;BME280;59263;48.160;11.752;2023-02-04T01:55:45;96842.56;;;3.72;100.00
71457;BME280;59263;48.160;11.752;2023-02-04T01:58:11;96845.72;;;3.77;100.00
71457;BME280;59263;48.160;11.752;2023-02-04T02:00:37;96823.16;;;3.50;100.00
71457;BME280;59263;48.160;11.752;2023-02-04T02:03:04;96853.88;;;3.68;100.00
71457;BME280;59263;48.160;11.752;2023-02-04T02:08:06;96848.38;;;3.75;100.00
71457;BME280;59263;48.160;11.752;2023-02-04T02:10:32;96860.16;;;3.78;100.00
71457;BME280;59263;48.160;11.752;2023-02-04T02:13:01;96852.81;;;3.72;100.00
71457;BME280;59263;48.160;11.752;2023-02-04T02:15:26;96851.59;;;3.61;100.00
71457;BME280;59263;48.160;11.752;2023-02-04T02:17:53;96868.84;;;3.75;100.00
71457;BME280;59263;48.160;11.752;2023-02-04T02:20:23;96858.06;;;3.69;100.00
71457;BME280;59263;48.160;11.752;2023-02-04T02:25:31;96842.94;;;3.47;100.00
71457;BME280;59263;48.160;11.752;2023-02-04T02:27:57;96863.19;;;3.51;100.00
71457;BME280;59263;48.160;11.752;2023-02-04T02:30:24;96845.59;;;3.45;100.00
71457;BME280;59263;48.160;11.752;2023-02-04T02:32:52;96863.25;;;3.50;100.00
71457;BME280;59263;48.160;11.752;2023-02-04T02:35:18;96874.31;;;3.50;100.00
71457;BME280;59263;48.160;11.752;2023-02-04T02:37:44;96889.22;;;3.59;100.00
71457;BME280;59263;48.160;11.752;2023-02-04T02:40:13;96876.56;;;3.39;100.00
71457;BME280;59263;48.160;11.752;2023-02-04T02:42:38;96871.31;;;3.42;100.00
71457;BME280;59263;48.160;11.752;2023-02-04T02:45:19;96891.63;;;3.45;100.00
71457;BME280;59263;48.160;11.752;2023-02-04T02:47:49;96894.78;;;3.50;100.00
71457;BME280;59263;48.160;11.752;2023-02-04T02:50:17;96899.75;;;3.53;100.00
71457;BME280;59263;48.160;11.752;2023-02-04T02:52:43;96886.78;;;3.39;100.00
71457;BME280;59263;48.160;11.752;2023-02-04T02:55:14;96891.78;;;3.42;100.00
71457;BME280;59263;48.160;11.752;2023-02-04T02:57:40;96867.81;;;3.26;100.00
71457;BME280;59263;48.160;11.752;2023-02-04T03:00:20;96888.75;;;3.34;100.00
71457;BME280;59263;48.160;11.752;2023-02-04T03:03:03;96876.69;;;3.36;100.00
71457;BME280;59263;48.160;11.752;2023-02-04T03:05:33;96866.19;;;3.42;100.00
71457;BME280;59263;48.160;11.752;2023-02-04T03:08:00;96857.59;;;3.43;100.00
71457;BME280;59263;48.160;11.752;2023-02-04T03:10:26;96903.84;;;3.57;100.00
71457;BME280;59263;48.160;11.752;2023-02-04T03:12:52;96891.47;;;3.48;100.00
71457;BME280;59263;48.160;11.752;2023-02-04T03:15:17;96906.44;;;3.56;100.00
71457;BME280;59263;48.160;11.752;2023-02-04T03:17:43;96881.69;;;3.39;100.00
71457;BME280;59263;48.160;11.752;2023-02-04T03:20:10;96895.91;;;3.45;100.00
71457;BME280;59263;48.160;11.752;2023-02-04T03:22:35;96918.19;;;3.43;100.00
71457;BME280;59263;48.160;11.752;2023-02-04T03:25:01;96918.13;;;3.25;100.00
71457;BME280;59263;48.160;11.752;2023-02-04T03:27:27;96936.72;;;3.10;100.00
71457;BME280;59263;48.160;11.752;2023-02-04T03:29:53;96940.94;;;2.73;100.00
71457;BME280;59263;48.160;11.752;2023-02-04T03:32:18;96954.03;;;2.65;100.00
71457;BME280;59263;48.160;11.752;2023-02-04T03:34:43;96968.31;;;2.51;100.00
71457;BME280;59263;48.160;11.752;2023-02-04T03:37:09;96970.81;;;2.32;100.00
71457;BME280;59263;48.160;11.752;2023-02-04T03:39:34;96979.53;;;2.26;100.00
71457;BME280;59263;48.160;11.752;2023-02-04T03:42:00;96967.47;;;2.09;100.00
71457;BME280;59263;48.160;11.752;2023-02-04T03:44:25;96972.69;;;2.06;100.00
71457;BME280;59263;48.160;11.752;2023-02-04T03:46:53;96973.41;;;2.10;100.00
71457;BME280;59263;48.160;11.752;2023-02-04T03:49:23;96993.19;;;2.25;100.00
71457;BME280;59263;48.160;11.752;2023-02-04T03:51:49;96988.16;;;2.24;100.00
71457;BME280;59263;48.160;11.752;2023-02-04T03:54:14;97002.59;;;2.25;100.00
71457;BME280;59263;48.160;11.752;2023-02-04T03:56:39;96996.41;;;2.30;100.00
71457;BME280;59263;48.160;11.752;2023-02-04T03:59:05;97006.63;;;2.30;100.00
71457;BME280;59263;48.160;11.752;2023-02-04T04:01:30;96992.97;;;2.31;100.00
71457;BME280;59263;48.160;11.752;2023-02-04T04:03:56;96993.53;;;2.38;100.00
71457;BME280;59263;48.160;11.752;2023-02-04T04:06:21;97020.09;;;2.54;100.00
71457;BME280;59263;48.160;11.752;2023-02-04T04:08:46;96994.41;;;2.37;100.00
71457;BME280;59263;48.160;11.752;2023-02-04T04:11:12;97018.56;;;2.50;100.00
71457;BME280;59263;48.160;11.752;2023-02-04T04:13:37;97015.19;;;2.50;100.00
71457;BME280;59263;48.160;11.752;2023-02-04T04:16:03;97012.16;;;2.40;100.00
71457;BME280;59263;48.160;11.752;2023-02-04T04:18:29;97021.56;;;2.60;100.00
71457;BME280;59263;48.160;11.752;2023-02-04T04:20:55;97027.44;;;2.62;100.00
71457;BME280;59263;48.160;11.752;2023-02-04T04:23:20;97013.22;;;2.56;100.00
71457;BME280;59263;48.160;11.752;2023-02-04T04:25:48;97003.34;;;2.47;100.00
71457;BME280;59263;48.160;11.752;2023-02-04T04:28:14;97035.69;;;2.69;100.00
71457;BME280;59263;48.160;11.752;2023-02-04T04:30:39;97037.28;;;2.71;100.00
71457;BME280;59263;48.160;11.752;2023-02-04T04:33:04;97027.38;;;2.63;100.00
71457;BME280;59263;48.160;11.752;2023-02-04T04:35:32;97044.88;;;2.73;100.00
71457;BME280;59263;48.160;11.752;2023-02-04T04:37:59;97025.44;;;2.48;100.00
71457;BME280;59263;48.160;11.752;2023-02-04T04:40:25;97051.78;;;2.50;100.00
71457;BME280;59263;48.160;11.752;2023-02-04T04:42:50;97050.44;;;2.41;100.00
71457;BME280;59263;48.160;11.752;2023-02-04T04:45:16;97052.50;;;2.32;100.00
71457;BME280;59263;48.160;11.752;2023-02-04T04:47:41;97060.19;;;2.32;100.00
71457;BME280;59263;48.160;11.752;2023-02-04T04:50:07;97065.75;;;2.41;100.00
71457;BME280;59263;48.160;11.752;2023-02-04T04:52:32;97060.28;;;2.29;100.00
71457;BME280;59263;48.160;11.752;2023-02-04T04:54:57;97062.72;;;2.32;100.00
71457;BME280;59263;48.160;11.752;2023-02-04T04:57:23;97053.31;;;2.12;100.00
71457;BME280;59263;48.160;11.752;2023-02-04T04:59:48;97051.22;;;2.22;100.00
71457;BME280;59263;48.160;11.752;2023-02-04T05:02:13;97072.72;;;2.38;100.00
71457;BME280;59263;48.160;11.752;2023-02-04T05:04:39;97071.19;;;2.54;100.00
71457;BME280;59263;48.160;11.752;2023-02-04T05:07:04;97052.19;;;2.39;100.00
71457;BME280;59263;48.160;11.752;2023-02-04T05:09:29;97069.25;;;2.59;100.00
71457;BME280;59263;48.160;11.752;2023-02-04T05:11:55;97081.75;;;2.67;100.00
71457;BME280;59263;48.160;11.752;2023-02-04T05:14:20;97075.66;;;2.70;100.00
71457;BME280;59263;48.160;11.752;2023-02-04T05:16:45;97086.84;;;2.67;100.00
71457;BME280;59263;48.160;11.752;2023-02-04T05:19:11;97085.13;;;2.67;100.00
71457;BME280;59263;48.160;11.752;2023-02-04T05:21:36;97079.25;;;2.65;100.00
71457;BME280;59263;48.160;11.752;2023-02-04T05:24:01;97094.31;;;2.72;100.00
71457;BME280;59263;48.160;11.752;2023-02-04T05:26:27;97070.03;;;2.61;100.00
71457;BME280;59263;48.160;11.752;2023-02-04T05:28:52;97128.56;;;2.88;100.00
71457;BME280;59263;48.160;11.752;2023-02-04T05:31:17;97084.09;;;2.72;100.00
71457;BME280;59263;48.160;11.752;2023-02-04T05:33:43;97092.91;;;2.64;100.00
71457;BME280;59263;48.160;11.752;2023-02-04T05:36:10;97114.88;;;2.69;100.00
71457;BME280;59263;48.160;11.752;2023-02-04T05:38:36;97121.66;;;2.70;100.00
71457;BME280;59263;48.160;11.752;2023-02-04T05:41:01;97111.03;;;2.58;100.00
71457;BME280;59263;48.160;11.752;2023-02-04T05:43:27;97117.81;;;2.59;100.00
71457;BME280;59263;48.160;11.752;2023-02-04T05:45:54;97109.69;;;2.50;100.00
71457;BME280;59263;48.160;11.752;2023-02-04T05:48:20;97152.31;;;2.70;100.00
71457;BME280;59263;48.160;11.752;2023-02-04T05:50:45;97151.50;;;2.69;100.00
71457;BME280;59263;48.160;11.752;2023-02-04T05:53:10;97139.03;;;2.61;100.00
71457;BME280;59263;48.160;11.752;2023-02-04T05:55:36;97170.50;;;2.84;100.00
71457;BME280;59263;48.160;11.752;2023-02-04T05:58:01;97135.69;;;2.59;100.00
71457;BME280;59263;48.160;11.752;2023-02-04T06:00:26;97180.13;;;2.77;100.00
71457;BME280;59263;48.160;11.752;2023-02-04T06:02:52;97190.47;;;2.74;100.00
71457;BME280;59263;48.160;11.752;2023-02-04T06:05:17;97169.50;;;2.66;100.00
71457;BME280;59263;48.160;11.752;2023-02-04T06:07:42;97189.75;;;2.71;100.00
71457;BME280;59263;48.160;11.752;2023-02-04T06:10:08;97171.44;;;2.59;100.00
71457;BME280;59263;48.160;11.752;2023-02-04T06:12:35;97180.63;;;2.65;100.00
71457;BME280;59263;48.160;11.752;2023-02-04T06:15:00;97198.28;;;2.71;100.00
71457;BME280;59263;48.160;11.752;2023-02-04T06:17:25;97188.34;;;2.63;100.00
71457;BME280;59263;48.160;11.752;2023-02-04T06:19:51;97208.41;;;2.73;100.00
71457;BME280;59263;48.160;11.752;2023-02-04T06:22:16;97194.34;;;2.62;100.00
71457;BME280;59263;48.160;11.752;2023-02-04T06:24:41;97225.25;;;2.78;100.00
71457;BME280;59263;48.160;11.752;2023-02-04T06:27:07;97213.75;;;2.66;100.00
71457;BME280;59263;48.160;11.752;2023-02-04T06:29:32;97223.97;;;2.66;100.00
71457;BME280;59263;48.160;11.752;2023-02-04T06:31:57;97219.66;;;2.69;100.00
71457;BME280;59263;48.160;11.752;2023-02-04T06:34:23;97228.88;;;2.73;100.00
71457;BME280;59263;48.160;11.752;2023-02-04T06:36:48;97215.66;;;2.61;100.00
71457;BME280;59263;48.160;11.752;2023-02-04T06:39:14;97213.19;;;2.60;100.00
71457;BME280;59263;48.160;11.752;2023-02-04T06:41:39;97239.50;;;2.84;100.00
71457;BME280;59263;48.160;11.752;2023-02-04T06:44:04;97228.53;;;2.82;100.00
71457;BME280;59263;48.160;11.752;2023-02-04T06:46:30;97230.19;;;2.83;100.00
71457;BME280;59263;48.160;11.752;2023-02-04T06:48:55;97222.53;;;2.81;100.00
71457;BME280;59263;48.160;11.752;2023-02-04T06:51:21;97227.72;;;2.80;100.00
71457;BME280;59263;48.160;11.752;2023-02-04T06:53:46;97196.78;;;2.65;100.00
71457;BME280;59263;48.160;11.752;2023-02-04T06:56:11;97224.09;;;2.85;100.00
71457;BME280;59263;48.160;11.752;2023-02-04T06:58:37;97220.91;;;2.80;100.00
71457;BME280;59263;48.160;11.752;2023-02-04T07:01:02;97215.97;;;2.76;100.00
71457;BME280;59263;48.160;11.752;2023-02-04T07:03:28;97225.06;;;2.83;100.00
71457;BME280;59263;48.160;11.752;2023-02-04T07:05:53;97211.63;;;2.78;100.00
71457;BME280;59263;48.160;11.752;2023-02-04T07:08:19;97219.16;;;2.81;100.00
71457;BME280;59263;48.160;11.752;2023-02-04T07:10:46;97233.47;;;2.85;100.00
71457;BME280;59263;48.160;11.752;2023-02-04T07:13:11;97225.81;;;2.85;100.00
71457;BME280;59263;48.160;11.752;2023-02-04T07:15:36;97259.28;;;3.01;100.00
71457;BME280;59263;48.160;11.752;2023-02-04T07:18:02;97237.66;;;2.87;100.00
71457;BME280;59263;48.160;11.752;2023-02-04T07:20:27;97258.59;;;2.97;100.00
71457;BME280;59263;48.160;11.752;2023-02-04T07:22:52;97232.31;;;2.72;100.00
71457;BME280;59263;48.160;11.752;2023-02-04T07:25:18;97242.06;;;2.84;100.00
71457;BME280;59263;48.160;11.752;2023-02-04T07:27:43;97282.34;;;2.99;100.00
71457;BME280;59263;48.160;11.752;2023-02-04T07:30:09;97270.69;;;2.92;100.00
71457;BME280;59263;48.160;11.752;2023-02-04T07:32:38;97278.47;;;2.89;100.00
71457;BME280;59263;48.160;11.752;2023-02-04T07:35:03;97263.94;;;2.91;100.00
71457;BME280;59263;48.160;11.752;2023-02-04T07:37:29;97297.34;;;3.08;100.00
71457;BME280;59263;48.160;11.752;2023-02-04T07:39:54;97292.34;;;3.05;100.00
71457;BME280;59263;48.160;11.752;2023-02-04T07:42:19;97284.41;;;3.11;100.00
71457;BME280;59263;48.160;11.752;2023-02-04T07:44:45;97292.97;;;3.10;100.00
71457;BME280;59263;48.160;11.752;2023-02-04T07:47:10;97295.53;;;3.10;100.00
71457;BME280;59263;48.160;11.752;2023-02-04T07:49:36;97269.03;;;2.91;100.00
71457;BME280;59263;48.160;11.752;2023-02-04T07:52:02;97309.31;;;3.08;100.00
71457;BME280;59263;48.160;11.752;2023-02-04T07:54:27;97301.03;;;3.01;100.00
71457;BME280;59263;48.160;11.752;2023-02-04T07:56:53;97326.13;;;3.13;100.00
71457;BME280;59263;48.160;11.752;2023-02-04T07:59:18;97315.41;;;3.04;100.00
71457;BME280;59263;48.160;11.752;2023-02-04T08:01:43;97310.44;;;3.01;100.00
71457;BME280;59263;48.160;11.752;2023-02-04T08:04:09;97328.03;;;3.08;100.00
71457;BME280;59263;48.160;11.752;2023-02-04T08:06:34;97337.84;;;3.19;100.00
71457;BME280;59263;48.160;11.752;2023-02-04T08:08:59;97309.56;;;3.00;100.00
71457;BME280;59263;48.160;11.752;2023-02-04T08:11:24;97330.22;;;3.18;100.00
71457;BME280;59263;48.160;11.752;2023-02-04T08:13:51;97345.25;;;3.25;100.00
71457;BME280;59263;48.160;11.752;2023-02-04T08:16:16;97345.31;;;3.24;100.00
71457;BME280;59263;48.160;11.752;2023-02-04T08:18:41;97355.47;;;3.25;100.00
71457;BME280;59263;48.160;11.752;2023-02-04T08:21:07;97341.47;;;3.13;100.00
71457;BME280;59263;48.160;11.752;2023-02-04T08:23:32;97357.75;;;3.11;100.00
71457;BME280;59263;48.160;11.752;2023-02-04T08:25:58;97330.38;;;2.91;100.00
71457;BME280;59263;48.160;11.752;2023-02-04T08:28:24;97352.16;;;3.01;100.00
71457;BME280;59263;48.160;11.752;2023-02-04T08:30:49;97362.22;;;3.06;100.00
71457;BME280;59263;48.160;11.752;2023-02-04T08:33:15;97334.19;;;2.81;100.00
71457;BME280;59263;48.160;11.752;2023-02-04T08:35:43;97343.78;;;2.74;100.00
71457;BME280;59263;48.160;11.752;2023-02-04T08:38:08;97353.16;;;2.75;100.00
71457;BME280;59263;48.160;11.752;2023-02-04T08:40:34;97351.41;;;2.76;100.00
71457;BME280;59263;48.160;11.752;2023-02-04T08:43:02;97355.59;;;2.78;100.00
71457;BME280;59263;48.160;11.752;2023-02-04T08:45:27;97356.19;;;2.85;100.00
71457;BME280;59263;48.160;11.752;2023-02-04T08:47:55;97372.19;;;2.90;100.00
71457;BME280;59263;48.160;11.752;2023-02-04T08:50:20;97385.50;;;2.98;100.00
71457;BME280;59263;48.160;11.752;2023-02-04T08:52:48;97378.66;;;2.99;100.00
71457;BME280;59263;48.160;11.752;2023-02-04T08:55:14;97383.19;;;3.14;100.00
71457;BME280;59263;48.160;11.752;2023-02-04T08:57:39;97388.19;;;3.17;100.00
71457;BME280;59263;48.160;11.752;2023-02-04T09:00:05;97383.81;;;3.21;100.00
71457;BME280;59263;48.160;11.752;2023-02-04T09:02:30;97380.53;;;3.17;100.00
71457;BME280;59263;48.160;11.752;2023-02-04T09:04:58;97388.03;;;3.22;100.00
71457;BME280;59263;48.160;11.752;2023-02-04T09:07:23;97361.28;;;3.08;100.00
71457;BME280;59263;48.160;11.752;2023-02-04T09:09:49;97398.66;;;3.33;100.00
71457;BME280;59263;48.160;11.752;2023-02-04T09:12:14;97385.72;;;3.37;100.00
71457;BME280;59263;48.160;11.752;2023-02-04T09:14:39;97384.41;;;3.49;100.00
71457;BME280;59263;48.160;11.752;2023-02-04T09:17:05;97392.81;;;3.73;100.00
71457;BME280;59263;48.160;11.752;2023-02-04T09:19:31;97392.88;;;3.92;100.00
71457;BME280;59263;48.160;11.752;2023-02-04T09:21:56;97389.31;;;3.96;100.00
71457;BME280;59263;48.160;11.752;2023-02-04T09:24:22;97397.31;;;4.09;100.00
71457;BME280;59263;48.160;11.752;2023-02-04T09:26:48;97391.38;;;4.08;100.00
71457;BME280;59263;48.160;11.752;2023-02-04T09:29:13;97370.34;;;4.00;100.00
71457;BME280;59263;48.160;11.752;2023-02-04T09:31:38;97405.59;;;4.16;100.00
71457;BME280;59263;48.160;11.752;2023-02-04T09:34:04;97405.00;;;4.09;100.00
71457;BME280;59263;48.160;11.752;2023-02-04T09:36:30;97398.00;;;3.92;100.00
71457;BME280;59263;48.160;11.752;2023-02-04T09:38:58;97404.88;;;3.92;100.00
71457;BME280;59263;48.160;11.752;2023-02-04T09:41:23;97379.50;;;3.65;100.00
71457;BME280;59263;48.160;11.752;2023-02-04T09:43:49;97394.78;;;3.67;100.00
71457;BME280;59263;48.160;11.752;2023-02-04T09:46:24;97441.09;;;3.82;100.00
71457;BME280;59263;48.160;11.752;2023-02-04T09:48:54;97467.00;;;3.75;100.00
71457;BME280;59263;48.160;11.752;2023-02-04T09:51:22;97457.81;;;3.47;100.00
71457;BME280;59263;48.160;11.752;2023-02-04T09:53:50;97471.97;;;3.10;100.00
71457;BME280;59263;48.160;11.752;2023-02-04T09:56:18;97485.78;;;2.83;100.00
71457;BME280;59263;48.160;11.752;2023-02-04T09:58:44;97493.91;;;2.69;100.00
71457;BME280;59263;48.160;11.752;2023-02-04T10:01:11;97503.41;;;2.65;100.00
71457;BME280;59263;48.160;11.752;2023-02-04T10:03:39;97489.28;;;2.55;100.00
71457;BME280;59263;48.160;11.752;2023-02-04T10:06:10;97482.50;;;2.54;100.00
71457;BME280;59263;48.160;11.752;2023-02-04T10:08:35;97502.22;;;2.51;100.00
71457;BME280;59263;48.160;11.752;2023-02-04T10:11:01;97477.72;;;2.45;100.00
71457;BME280;59263;48.160;11.752;2023-02-04T10:13:32;97501.47;;;2.47;100.00
71457;BME280;59263;48.160;11.752;2023-02-04T10:15:59;97479.31;;;1.96;100.00
71457;BME280;59263;48.160;11.752;2023-02-04T10:18:28;97504.91;;;1.94;100.00
71457;BME280;59263;48.160;11.752;2023-02-04T10:21:17;97511.00;;;1.90;100.00
71457;BME280;59263;48.160;11.752;2023-02-04T10:23:46;97503.91;;;1.72;100.00
71457;BME280;59263;48.160;11.752;2023-02-04T10:26:13;97506.94;;;1.55;100.00
71457;BME280;59263;48.160;11.752;2023-02-04T10:28:38;97498.00;;;1.42;100.00
71457;BME280;59263;48.160;11.752;2023-02-04T10:31:05;97505.16;;;1.29;100.00
71457;BME280;59263;48.160;11.752;2023-02-04T10:33:33;97520.97;;;1.42;100.00
71457;BME280;59263;48.160;11.752;2023-02-04T10:36:01;97517.22;;;1.54;100.00
71457;BME280;59263;48.160;11.752;2023-02-04T10:38:28;97509.47;;;1.57;100.00
71457;BME280;59263;48.160;11.752;2023-02-04T10:41:03;97493.38;;;1.55;100.00
71457;BME280;59263;48.160;11.752;2023-02-04T10:43:29;97487.66;;;1.47;100.00
71457;BME280;59263;48.160;11.752;2023-02-04T10:46:00;97499.50;;;1.49;100.00
71457;BME280;59263;48.160;11.752;2023-02-04T10:48:26;97505.19;;;1.57;100.00
71457;BME280;59263;48.160;11.752;2023-02-04T10:50:55;97488.69;;;1.69;100.00
71457;BME280;59263;48.160;11.752;2023-02-04T10:53:22;97485.94;;;1.75;100.00
71457;BME280;59263;48.160;11.752;2023-02-04T10:56:15;97497.41;;;1.62;100.00
71457;BME280;59263;48.160;11.752;2023-02-04T10:58:41;97505.13;;;1.60;100.00
71457;BME280;59263;48.160;11.752;2023-02-04T11:01:10;97501.75;;;1.58;100.00
71457;BME280;59263;48.160;11.752;2023-02-04T11:03:37;97499.28;;;1.57;100.00
71457;BME280;59263;48.160;11.752;2023-02-04T11:06:23;97492.03;;;1.71;100.00
71457;BME280;59263;48.160;11.752;2023-02-04T11:08:49;97472.47;;;1.72;100.00
71457;BME280;59263;48.160;11.752;2023-02-04T11:11:20;97500.81;;;1.89;100.00
71457;BME280;59263;48.160;11.752;2023-02-04T11:18:54;97494.63;;;1.69;100.00
71457;BME280;59263;48.160;11.752;2023-02-04T11:23:47;97512.75;;;1.88;100.00
71457;BME280;59263;48.160;11.752;2023-02-04T11:26:32;97506.06;;;2.11;100.00
71457;BME280;59263;48.160;11.752;2023-02-04T11:29:42;97505.47;;;2.29;100.00
71457;BME280;59263;48.160;11.752;2023-02-04T11:39:40;97496.94;;;2.30;100.00
71457;BME280;59263;48.160;11.752;2023-02-04T11:42:31;97488.25;;;2.09;100.00
71457;BME280;59263;48.160;11.752;2023-02-04T11:45:13;97501.03;;;2.09;100.00
71457;BME280;59263;48.160;11.752;2023-02-04T11:47:40;97489.53;;;1.96;100.00
71457;BME280;59263;48.160;11.752;2023-02-04T11:50:27;97486.59;;;2.08;100.00
71457;BME280;59263;48.160;11.752;2023-02-04T11:52:55;97491.63;;;2.11;100.00
71457;BME280;59263;48.160;11.752;2023-02-04T11:55:20;97478.53;;;2.21;100.00
71457;BME280;59263;48.160;11.752;2023-02-04T11:57:50;97480.16;;;2.48;100.00
71457;BME280;59263;48.160;11.752;2023-02-04T12:00:19;97473.19;;;2.77;100.00
71457;BME280;59263;48.160;11.752;2023-02-04T12:02:47;97478.22;;;3.03;100.00
71457;BME280;59263;48.160;11.752;2023-02-04T12:05:18;97455.53;;;3.18;100.00
71457;BME280;59263;48.160;11.752;2023-02-04T12:07:45;97461.03;;;3.30;100.00
71457;BME280;59263;48.160;11.752;2023-02-04T12:10:24;97468.41;;;3.38;100.00
71457;BME280;59263;48.160;11.752;2023-02-04T12:12:54;97464.88;;;3.40;100.00
71457;BME280;59263;48.160;11.752;2023-02-04T12:15:31;97467.56;;;3.15;100.00
71457;BME280;59263;48.160;11.752;2023-02-04T12:18:10;97451.09;;;2.99;100.00
71457;BME280;59263;48.160;11.752;2023-02-04T12:20:40;97464.88;;;2.95;100.00
71457;BME280;59263;48.160;11.752;2023-02-04T12:23:06;97474.16;;;2.98;100.00
71457;BME280;59263;48.160;11.752;2023-02-04T12:25:32;97476.91;;;2.93;100.00
71457;BME280;59263;48.160;11.752;2023-02-04T12:27:58;97476.31;;;2.85;100.00
71457;BME280;59263;48.160;11.752;2023-02-04T12:30:24;97471.09;;;2.88;100.00
71457;BME280;59263;48.160;11.752;2023-02-04T12:32:50;97469.44;;;3.10;100.00
71457;BME280;59263;48.160;11.752;2023-02-04T12:35:16;97485.03;;;3.26;100.00
71457;BME280;59263;48.160;11.752;2023-02-04T12:37:42;97486.38;;;3.58;100.00
71457;BME280;59263;48.160;11.752;2023-02-04T12:40:19;97470.22;;;3.80;100.00
71457;BME280;59263;48.160;11.752;2023-02-04T12:42:45;97477.09;;;3.78;100.00
71457;BME280;59263;48.160;11.752;2023-02-04T12:45:13;97475.81;;;3.68;100.00
71457;BME280;59263;48.160;11.752;2023-02-04T12:47:38;97462.72;;;3.53;100.00
71457;BME280;59263;48.160;11.752;2023-02-04T12:50:05;97473.78;;;3.54;100.00
71457;BME280;59263;48.160;11.752;2023-02-04T12:52:31;97473.16;;;3.47;100.00
71457;BME280;59263;48.160;11.752;2023-02-04T12:54:57;97445.06;;;3.24;100.00
71457;BME280;59263;48.160;11.752;2023-02-04T12:57:24;97456.63;;;3.34;100.00
71457;BME280;59263;48.160;11.752;2023-02-04T12:59:49;97433.94;;;3.25;100.00
71457;BME280;59263;48.160;11.752;2023-02-04T13:02:15;97456.75;;;3.31;100.00
71457;BME280;59263;48.160;11.752;2023-02-04T13:04:40;97447.81;;;3.41;100.00
71457;BME280;59263;48.160;11.752;2023-02-04T13:07:06;97463.16;;;3.63;100.00
71457;BME280;59263;48.160;11.752;2023-02-04T13:09:33;97455.78;;;3.55;100.00